Time;durP1;ratioP1;P1;durP2;ratioP2;P2;SDS_P1;SDS_P2;PMS_P1;PMS_P2;Temp;Humidity;BMP_temperature;BMP_pressure;BME280_temperature;BME280_humidity;BME280_pressure;Samples;Min_cycle;Max_cycle;Signal;HPM_P1;HPM_P2
2023/01/26 00:01:23;;;;;;;0.30;0.30;;;12.60;57.20;;;;;;5004619;28;20025;-86
2023/01/26 00:03:49;;;;;;;0.30;0.30;;;12.60;57.10;;;;;;5001976;28;20021;-85
2023/01/26 00:06:17;;;;;;;0.30;0.30;;;12.60;57.10;;;;;;5014897;28;20182;-86
2023/01/26 00:08:46;;;;;;;0.20;0.20;;;12.60;57.00;;;;;;5001203;28;20056;-87
2023/01/26 00:11:14;;;;;;;0.22;0.22;;;12.40;57.10;;;;;;4996817;28;20022;-87
2023/01/26 00:13:39;;;;;;;0.32;0.32;;;12.10;57.90;;;;;;5012871;28;20044;-86
2023/01/26 00:16:09;;;;;;;0.20;0.20;;;12.10;57.80;;;;;;5016829;28;20444;-87
2023/01/26 00:18:36;;;;;;;0.30;0.30;;;12.00;57.90;;;;;;5005037;28;20026;-86
2023/01/26 00:21:03;;;;;;;0.20;0.20;;;11.70;59.00;;;;;;4996272;28;20026;-87
2023/01/26 00:23:30;;;;;;;0.30;0.30;;;11.90;58.70;;;;;;4997405;28;20048;-85
2023/01/26 00:25:56;;;;;;;0.30;0.30;;;11.70;58.70;;;;;;5002771;28;20049;-85
2023/01/26 00:28:22;;;;;;;0.20;0.20;;;11.70;58.90;;;;;;4996321;28;20034;-87
2023/01/26 00:30:48;;;;;;;0.40;0.40;;;12.00;58.20;;;;;;4977644;28;20121;-87
2023/01/26 00:33:14;;;;;;;0.22;0.22;;;12.20;57.80;;;;;;5006966;28;20057;-87
2023/01/26 00:35:43;;;;;;;0.25;0.25;;;12.30;57.50;;;;;;4996111;28;20053;-85
2023/01/26 00:38:10;;;;;;;0.30;0.30;;;12.30;57.50;;;;;;4996410;28;20049;-86
2023/01/26 00:40:36;;;;;;;0.32;0.32;;;12.50;57.30;;;;;;4996041;28;20025;-85
2023/01/26 00:43:02;;;;;;;0.30;0.30;;;12.30;57.30;;;;;;5012494;28;20029;-86
2023/01/26 00:45:28;;;;;;;0.30;0.30;;;12.30;57.50;;;;;;4996223;28;20022;-86
2023/01/26 00:47:53;;;;;;;0.30;0.30;;;12.30;57.20;;;;;;4998896;28;20476;-88
2023/01/26 00:50:19;;;;;;;0.40;0.40;;;12.20;57.80;;;;;;4999785;28;20050;-86
2023/01/26 00:52:45;;;;;;;0.30;0.30;;;12.20;57.70;;;;;;5000031;28;20029;-84
2023/01/26 00:55:10;;;;;;;0.30;0.30;;;12.30;57.80;;;;;;5006483;28;20017;-85
2023/01/26 00:57:36;;;;;;;0.22;0.22;;;12.40;57.30;;;;;;4999241;28;20118;-87
2023/01/26 01:00:03;;;;;;;0.30;0.30;;;12.50;57.30;;;;;;4999709;28;20051;-86
2023/01/26 01:02:29;;;;;;;0.20;0.20;;;12.60;57.00;;;;;;4999223;28;20120;-85
2023/01/26 01:04:54;;;;;;;0.30;0.30;;;12.20;57.20;;;;;;4996552;28;20457;-86
2023/01/26 01:07:20;;;;;;;0.20;0.20;;;11.90;57.90;;;;;;4999531;28;20029;-86
2023/01/26 01:09:46;;;;;;;0.20;0.20;;;12.00;57.80;;;;;;4999657;28;20496;-87
2023/01/26 01:12:11;;;;;;;0.30;0.30;;;12.20;57.70;;;;;;5000356;28;20018;-86
2023/01/26 01:14:37;;;;;;;0.30;0.30;;;12.20;57.80;;;;;;5000046;28;20050;-85
2023/01/26 01:17:03;;;;;;;0.30;0.30;;;12.30;57.60;;;;;;4999600;28;20025;-86
2023/01/26 01:19:29;;;;;;;0.30;0.30;;;12.20;57.40;;;;;;4999680;28;20057;-85
2023/01/26 01:21:54;;;;;;;0.20;0.20;;;12.30;57.30;;;;;;4999131;28;20022;-85
2023/01/26 01:24:20;;;;;;;0.22;0.22;;;12.40;57.30;;;;;;4999507;28;20492;-85
2023/01/26 01:26:46;;;;;;;0.20;0.20;;;12.40;57.20;;;;;;4999618;28;20021;-87
2023/01/26 01:29:12;;;;;;;0.40;0.40;;;12.50;57.00;;;;;;4999509;28;20447;-86
2023/01/26 01:31:38;;;;;;;0.30;0.30;;;12.50;57.20;;;;;;4999509;28;20425;-86
2023/01/26 01:34:04;;;;;;;0.40;0.40;;;12.30;57.60;;;;;;4999936;28;20113;-87
2023/01/26 01:36:30;;;;;;;0.40;0.40;;;12.10;58.30;;;;;;5015693;28;20030;-86
2023/01/26 01:38:56;;;;;;;0.20;0.20;;;12.00;58.10;;;;;;4999258;28;20014;-86
2023/01/26 01:41:22;;;;;;;0.30;0.30;;;12.10;57.80;;;;;;4999302;28;20049;-84
2023/01/26 01:43:49;;;;;;;0.30;0.30;;;12.00;58.10;;;;;;4999731;28;20373;-87
2023/01/26 01:46:35;;;;;;;0.30;0.30;;;12.20;58.10;;;;;;4999200;28;20068;-87
2023/01/26 01:49:05;;;;;;;0.40;0.40;;;12.30;57.80;;;;;;4999183;28;20030;-87
2023/01/26 01:51:39;;;;;;;0.28;0.28;;;12.40;57.70;;;;;;4999178;28;20453;-87
2023/01/26 01:54:10;;;;;;;0.28;0.28;;;12.50;57.30;;;;;;4999267;28;20076;-86
2023/01/26 01:56:41;;;;;;;0.32;0.32;;;12.40;57.10;;;;;;4998342;28;20025;-86
2023/01/26 01:59:08;;;;;;;0.30;0.30;;;12.30;57.20;;;;;;4997650;28;20054;-87
2023/01/26 02:01:34;;;;;;;0.40;0.40;;;12.40;56.90;;;;;;4998351;28;20040;-87
2023/01/26 02:04:04;;;;;;;0.30;0.30;;;12.40;57.20;;;;;;4999415;28;20350;-86
2023/01/26 02:06:39;;;;;;;0.20;0.20;;;12.40;56.90;;;;;;4998098;28;20032;-85
2023/01/26 02:09:07;;;;;;;0.28;0.28;;;12.50;56.90;;;;;;4998490;28;20038;-86
2023/01/26 02:11:44;;;;;;;0.30;0.30;;;12.40;57.30;;;;;;4998194;28;20056;-87
2023/01/26 02:14:13;;;;;;;0.38;0.38;;;12.50;57.20;;;;;;4994948;28;20030;-87
2023/01/26 02:16:38;;;;;;;0.30;0.30;;;12.50;57.30;;;;;;4995249;28;20027;-87
2023/01/26 02:19:11;;;;;;;0.30;0.30;;;12.50;57.20;;;;;;4998437;28;20357;-87
2023/01/26 02:21:38;;;;;;;0.30;0.30;;;12.50;57.10;;;;;;4995059;28;20090;-85
2023/01/26 02:24:03;;;;;;;0.30;0.30;;;12.60;57.00;;;;;;5000389;28;20033;-84
2023/01/26 02:26:32;;;;;;;0.30;0.30;;;12.50;57.00;;;;;;5034919;28;20096;-87
2023/01/26 02:28:59;;;;;;;0.20;0.20;;;12.60;57.00;;;;;;5018061;28;20383;-87
2023/01/26 02:31:26;;;;;;;0.30;0.30;;;12.70;56.90;;;;;;5018328;28;20026;-87
2023/01/26 02:33:52;;;;;;;0.30;0.30;;;12.40;56.70;;;;;;5017888;28;20026;-87
2023/01/26 02:36:25;;;;;;;0.30;0.30;;;12.00;57.30;;;;;;5003561;28;20037;-87
2023/01/26 02:39:09;;;;;;;0.30;0.30;;;11.70;58.50;;;;;;4997853;28;20030;-87
2023/01/26 02:44:19;;;;;;;0.20;0.20;;;11.80;58.10;;;;;;5006173;28;20487;-86
2023/01/26 02:46:45;;;;;;;0.30;0.30;;;11.90;57.90;;;;;;5017607;28;20022;-85
2023/01/26 02:51:54;;;;;;;0.30;0.30;;;12.20;57.50;;;;;;5022882;28;20036;-87
2023/01/26 02:57:05;;;;;;;0.30;0.30;;;11.70;58.00;;;;;;5015892;28;20092;-85
2023/01/26 02:59:32;;;;;;;0.30;0.30;;;11.30;58.90;;;;;;4998688;28;20048;-86
2023/01/26 03:01:58;;;;;;;0.40;0.40;;;10.90;59.60;;;;;;5002035;28;20030;-86
2023/01/26 03:04:24;;;;;;;0.28;0.28;;;11.20;59.70;;;;;;4998157;28;20022;-87
2023/01/26 03:06:50;;;;;;;0.30;0.30;;;11.30;59.40;;;;;;5014645;28;20052;-86
2023/01/26 03:09:15;;;;;;;0.30;0.30;;;11.50;59.10;;;;;;4997653;28;20034;-86
2023/01/26 03:11:41;;;;;;;0.40;0.40;;;11.30;58.80;;;;;;4993642;28;20105;-86
2023/01/26 03:14:12;;;;;;;0.20;0.20;;;11.00;59.70;;;;;;4994092;28;20030;-87
2023/01/26 03:16:37;;;;;;;0.30;0.30;;;10.90;60.10;;;;;;4995609;28;20018;-86
2023/01/26 03:29:44;;;;;;;0.22;0.22;;;11.70;58.30;;;;;;5027785;28;20041;-87
2023/01/26 03:32:11;;;;;;;0.20;0.20;;;11.60;58.20;;;;;;5016943;28;20045;-87
2023/01/26 03:34:36;;;;;;;0.25;0.25;;;11.20;58.70;;;;;;5017182;28;20026;-87
2023/01/26 03:37:02;;;;;;;0.30;0.30;;;11.10;59.30;;;;;;5003704;28;20514;-86
2023/01/26 03:56:47;;;;;;;0.30;0.30;;;11.90;57.80;;;;;;5014840;28;20060;-86
2023/01/26 03:59:14;;;;;;;0.30;0.30;;;11.90;58.00;;;;;;4997471;28;20368;-85
2023/01/26 04:09:58;;;;;;;0.20;0.20;;;11.90;58.00;;;;;;5034931;28;20068;-84
2023/01/26 04:12:24;;;;;;;0.40;0.40;;;11.80;57.90;;;;;;5016186;28;20368;-84
2023/01/26 04:23:02;;;;;;;0.20;0.20;;;12.20;57.30;;;;;;5017505;28;20029;-85
2023/01/26 04:25:27;;;;;;;0.30;0.30;;;12.20;57.30;;;;;;5014533;28;20042;-85
2023/01/26 04:27:53;;;;;;;0.25;0.25;;;12.20;57.70;;;;;;5020936;28;20467;-86
2023/01/26 04:30:19;;;;;;;0.20;0.20;;;12.30;57.50;;;;;;5020160;28;20017;-86
2023/01/26 04:32:45;;;;;;;0.30;0.30;;;12.30;57.20;;;;;;5020440;28;20646;-85
2023/01/26 04:35:11;;;;;;;0.40;0.40;;;12.30;57.40;;;;;;5004093;28;20472;-85
2023/01/26 04:37:38;;;;;;;0.30;0.30;;;12.30;57.20;;;;;;5020965;28;20467;-85
2023/01/26 04:40:04;;;;;;;0.20;0.20;;;12.40;57.30;;;;;;5036872;28;20028;-85
2023/01/26 04:42:30;;;;;;;0.30;0.30;;;12.40;56.90;;;;;;5020748;28;20021;-84
2023/01/26 04:44:56;;;;;;;0.30;0.30;;;12.30;57.10;;;;;;5019947;28;20027;-85
2023/01/26 04:47:22;;;;;;;0.20;0.20;;;12.30;57.20;;;;;;5020034;28;20025;-85
2023/01/26 04:49:47;;;;;;;0.30;0.30;;;12.30;57.40;;;;;;5020336;28;20022;-85
2023/01/26 04:52:14;;;;;;;0.30;0.30;;;12.30;57.20;;;;;;5019721;28;20025;-87
2023/01/26 04:54:42;;;;;;;0.20;0.20;;;12.30;57.30;;;;;;5020135;28;20102;-86
2023/01/26 04:57:08;;;;;;;0.40;0.40;;;12.30;57.60;;;;;;5019915;28;20029;-87
2023/01/26 04:59:34;;;;;;;0.30;0.30;;;12.20;57.60;;;;;;5020000;28;20021;-85
2023/01/26 05:02:22;;;;;;;0.25;0.25;;;12.30;57.40;;;;;;5019193;28;20440;-82
2023/01/26 05:04:47;;;;;;;0.25;0.25;;;12.10;57.40;;;;;;5036134;28;20033;-84
2023/01/26 05:07:13;;;;;;;0.30;0.30;;;11.90;57.80;;;;;;5036165;28;20028;-85
2023/01/26 05:09:38;;;;;;;0.30;0.30;;;12.00;57.70;;;;;;5036086;28;20464;-84
2023/01/26 05:14:48;;;;;;;0.22;0.22;;;12.20;57.30;;;;;;5036682;28;20090;-84
2023/01/26 05:17:14;;;;;;;0.30;0.30;;;12.10;57.40;;;;;;5021425;28;20456;-86
2023/01/26 05:19:40;;;;;;;0.25;0.25;;;11.90;58.00;;;;;;5019284;28;20098;-84
2023/01/26 05:22:05;;;;;;;0.30;0.30;;;11.60;58.20;;;;;;5018993;28;20025;-83
2023/01/26 05:24:31;;;;;;;0.30;0.30;;;11.40;58.80;;;;;;5015794;28;20053;-86
2023/01/26 05:27:19;;;;;;;0.28;0.28;;;11.30;59.20;;;;;;5016478;28;20026;-85
2023/01/26 05:29:42;;;;;;;0.30;0.30;;;11.60;58.70;;;;;;5017024;28;20535;-84
2023/01/26 05:32:08;;;;;;;0.28;0.28;;;11.80;58.00;;;;;;5011831;28;20030;-83
2023/01/26 05:34:34;;;;;;;0.30;0.30;;;11.90;58.00;;;;;;5012405;28;20437;-84
2023/01/26 05:37:00;;;;;;;0.20;0.20;;;11.90;58.00;;;;;;5012534;28;20031;-84
2023/01/26 05:39:25;;;;;;;0.30;0.30;;;11.90;58.00;;;;;;5012283;28;20077;-84
2023/01/26 05:41:51;;;;;;;0.30;0.30;;;12.00;57.60;;;;;;5015389;28;20028;-85
2023/01/26 05:44:17;;;;;;;0.30;0.30;;;12.10;57.80;;;;;;5016140;28;20423;-85
2023/01/26 05:46:42;;;;;;;0.30;0.30;;;12.00;57.40;;;;;;5015973;28;20021;-85
2023/01/26 05:49:08;;;;;;;0.20;0.20;;;11.90;57.50;;;;;;5015739;28;20476;-88
2023/01/26 05:51:34;;;;;;;0.30;0.30;;;11.80;57.70;;;;;;5015336;28;20191;-83
2023/01/26 05:53:59;;;;;;;0.30;0.30;;;11.50;58.30;;;;;;5015152;28;20030;-84
2023/01/26 05:56:25;;;;;;;0.30;0.30;;;11.20;58.70;;;;;;5015496;28;20022;-84
2023/01/26 05:58:51;;;;;;;0.30;0.30;;;11.30;59.00;;;;;;5014927;28;20030;-85
2023/01/26 06:01:16;;;;;;;0.30;0.30;;;11.40;58.80;;;;;;5014658;28;20467;-85
2023/01/26 06:03:43;;;;;;;0.30;0.30;;;11.70;58.10;;;;;;5015477;28;20022;-85
2023/01/26 06:06:09;;;;;;;0.30;0.30;;;11.70;57.90;;;;;;5015171;28;20061;-85
2023/01/26 06:08:34;;;;;;;0.30;0.30;;;11.40;58.40;;;;;;5014819;28;20056;-85
2023/01/26 06:11:00;;;;;;;0.40;0.40;;;11.00;59.10;;;;;;5014746;28;20022;-84
2023/01/26 06:13:26;;;;;;;0.30;0.30;;;10.70;59.90;;;;;;5015017;28;20084;-86
2023/01/26 06:15:52;;;;;;;0.30;0.30;;;10.70;60.30;;;;;;5014848;28;20018;-87
2023/01/26 06:18:17;;;;;;;0.20;0.20;;;11.00;59.50;;;;;;5014087;28;20060;-84
2023/01/26 06:20:43;;;;;;;0.30;0.30;;;11.20;58.90;;;;;;5015204;28;20018;-86
2023/01/26 06:23:10;;;;;;;0.30;0.30;;;11.10;59.10;;;;;;5013858;28;20057;-86
2023/01/26 06:25:39;;;;;;;0.30;0.30;;;11.00;59.30;;;;;;5017561;28;20042;-83
2023/01/26 06:28:05;;;;;;;0.30;0.30;;;10.90;59.50;;;;;;5017877;28;20182;-86
2023/01/26 06:30:33;;;;;;;0.30;0.30;;;11.00;59.40;;;;;;5017774;28;20108;-83
2023/01/26 06:32:59;;;;;;;0.30;0.30;;;11.40;59.00;;;;;;5017865;28;20092;-84
2023/01/26 06:35:25;;;;;;;0.30;0.30;;;11.70;58.30;;;;;;5008804;28;20080;-86
2023/01/26 06:37:52;;;;;;;0.30;0.30;;;11.70;57.60;;;;;;4995088;28;20026;-86
2023/01/26 06:40:18;;;;;;;0.30;0.30;;;11.60;57.80;;;;;;4994731;28;20031;-85
2023/01/26 06:42:50;;;;;;;0.30;0.30;;;11.20;58.40;;;;;;4994859;28;20034;-85
2023/01/26 06:45:19;;;;;;;0.20;0.20;;;10.90;59.00;;;;;;4995733;28;20018;-85
2023/01/26 06:47:46;;;;;;;0.20;0.20;;;10.70;59.80;;;;;;4994561;28;20030;-85
2023/01/26 06:50:13;;;;;;;0.20;0.20;;;10.40;60.30;;;;;;4996755;28;20105;-84
2023/01/26 06:52:43;;;;;;;0.30;0.30;;;10.30;60.50;;;;;;4998329;28;20022;-83
2023/01/26 06:55:17;;;;;;;0.30;0.30;;;10.20;60.90;;;;;;4998244;28;20486;-84
2023/01/26 06:57:43;;;;;;;0.30;0.30;;;10.50;60.60;;;;;;4998031;28;20049;-86
2023/01/26 07:00:10;;;;;;;0.30;0.30;;;10.90;59.80;;;;;;4997663;28;20064;-85
2023/01/26 07:02:36;;;;;;;0.30;0.30;;;11.20;59.20;;;;;;4997869;28;20025;-84
2023/01/26 07:05:04;;;;;;;0.20;0.20;;;11.40;58.70;;;;;;4997386;28;20091;-86
2023/01/26 07:07:30;;;;;;;0.30;0.30;;;11.70;57.60;;;;;;4997380;28;20026;-83
2023/01/26 07:09:58;;;;;;;0.30;0.30;;;11.60;57.40;;;;;;5013940;28;20032;-84
2023/01/26 07:12:25;;;;;;;0.40;0.40;;;11.50;58.30;;;;;;5013697;28;20050;-85
2023/01/26 07:14:51;;;;;;;0.25;0.25;;;11.60;58.00;;;;;;5030487;28;20719;-86
2023/01/26 07:17:16;;;;;;;0.30;0.30;;;11.60;57.60;;;;;;5030159;28;20506;-85
2023/01/26 07:19:42;;;;;;;0.30;0.30;;;11.50;58.00;;;;;;5013756;28;20058;-85
2023/01/26 07:22:08;;;;;;;0.30;0.30;;;11.30;58.20;;;;;;5013579;28;20045;-85
2023/01/26 07:24:33;;;;;;;0.30;0.30;;;11.30;58.90;;;;;;4996891;28;20489;-85
2023/01/26 07:26:59;;;;;;;0.30;0.30;;;11.50;58.10;;;;;;4996589;28;20089;-85
2023/01/26 07:29:25;;;;;;;0.30;0.30;;;11.60;57.90;;;;;;4997311;28;20041;-85
2023/01/26 07:31:51;;;;;;;0.30;0.30;;;11.80;57.60;;;;;;4997334;28;20022;-85
2023/01/26 07:34:16;;;;;;;0.30;0.30;;;11.80;57.10;;;;;;5001493;28;20032;-85
2023/01/26 07:36:42;;;;;;;0.30;0.30;;;11.90;57.10;;;;;;4997548;28;20025;-85
2023/01/26 07:39:08;;;;;;;0.20;0.20;;;12.10;57.00;;;;;;4996438;28;20036;-84
2023/01/26 07:41:33;;;;;;;0.40;0.40;;;12.10;56.60;;;;;;4997179;28;20461;-85
2023/01/26 07:43:59;;;;;;;0.20;0.20;;;12.20;56.30;;;;;;4996796;28;20030;-86
2023/01/26 07:46:31;;;;;;;0.30;0.30;;;12.00;56.80;;;;;;4997155;28;20018;-85
2023/01/26 07:48:57;;;;;;;0.40;0.40;;;11.90;57.10;;;;;;4996015;28;20029;-87
2023/01/26 07:51:23;;;;;;;0.30;0.30;;;12.00;57.30;;;;;;5013359;28;20113;-86
2023/01/26 07:53:50;;;;;;;0.30;0.30;;;12.10;57.10;;;;;;5013398;28;20030;-87
2023/01/26 07:56:20;;;;;;;0.38;0.38;;;12.20;56.90;;;;;;5013802;28;20022;-86
2023/01/26 07:58:51;;;;;;;0.30;0.30;;;12.20;56.70;;;;;;5012791;28;20026;-86
2023/01/26 08:01:17;;;;;;;0.30;0.30;;;12.30;56.50;;;;;;5013164;28;20026;-87
2023/01/26 08:03:44;;;;;;;0.22;0.22;;;12.30;56.50;;;;;;5013176;28;20092;-86
2023/01/26 08:06:11;;;;;;;0.30;0.30;;;12.40;56.30;;;;;;5013269;28;20018;-86
2023/01/26 08:08:40;;;;;;;0.20;0.20;;;12.40;56.20;;;;;;5006534;28;20381;-86
2023/01/26 08:11:06;;;;;;;0.30;0.30;;;12.50;56.10;;;;;;5012744;28;20029;-86
2023/01/26 08:13:32;;;;;;;0.30;0.30;;;12.60;56.00;;;;;;5012997;28;20029;-85
2023/01/26 08:16:03;;;;;;;0.40;0.40;;;12.60;56.00;;;;;;5012398;28;20029;-85
2023/01/26 08:18:29;;;;;;;0.30;0.30;;;12.60;55.50;;;;;;5013383;28;20025;-86
2023/01/26 08:20:56;;;;;;;0.25;0.25;;;12.50;55.40;;;;;;5012181;28;20117;-86
2023/01/26 08:23:22;;;;;;;0.35;0.35;;;12.50;55.50;;;;;;5012976;28;20018;-86
2023/01/26 08:25:47;;;;;;;0.30;0.30;;;12.40;55.80;;;;;;5012542;28;20038;-85
2023/01/26 08:28:13;;;;;;;0.30;0.30;;;12.50;55.60;;;;;;4996370;28;20026;-85
2023/01/26 08:30:39;;;;;;;0.30;0.30;;;12.50;55.20;;;;;;4996857;28;20384;-86
2023/01/26 08:33:05;;;;;;;0.25;0.25;;;12.50;55.20;;;;;;4995781;28;20439;-86
2023/01/26 08:35:32;;;;;;;0.30;0.30;;;12.60;55.50;;;;;;4995995;28;20474;-86
2023/01/26 08:37:58;;;;;;;0.30;0.30;;;12.60;55.30;;;;;;4997792;28;20372;-86
2023/01/26 08:40:24;;;;;;;0.30;0.30;;;12.70;55.00;;;;;;4997022;28;20026;-86
2023/01/26 08:42:51;;;;;;;0.30;0.30;;;12.70;55.10;;;;;;4995790;28;20033;-87
2023/01/26 08:45:17;;;;;;;0.30;0.30;;;12.80;54.90;;;;;;4995738;28;20100;-86
2023/01/26 08:47:44;;;;;;;0.30;0.30;;;12.90;54.80;;;;;;4996698;28;20037;-86
2023/01/26 08:50:10;;;;;;;0.30;0.30;;;12.60;54.20;;;;;;4996863;28;20022;-86
2023/01/26 08:52:36;;;;;;;0.30;0.30;;;12.50;54.90;;;;;;4996122;28;20091;-86
2023/01/26 08:55:04;;;;;;;0.30;0.30;;;12.40;55.40;;;;;;4995770;28;20420;-86
2023/01/26 08:57:30;;;;;;;0.32;0.32;;;12.40;55.50;;;;;;4996502;28;20018;-87
2023/01/26 08:59:56;;;;;;;0.22;0.22;;;12.40;56.00;;;;;;4996006;28;20029;-85
2023/01/26 09:02:22;;;;;;;0.40;0.40;;;12.60;55.50;;;;;;4995984;28;20041;-86
2023/01/26 09:04:48;;;;;;;0.40;0.40;;;12.80;55.10;;;;;;4996058;28;20022;-86
2023/01/26 09:07:14;;;;;;;0.25;0.25;;;12.90;54.80;;;;;;4995827;28;20691;-85
2023/01/26 09:09:40;;;;;;;0.22;0.22;;;13.00;54.80;;;;;;4997079;28;20022;-85
2023/01/26 09:12:06;;;;;;;0.30;0.30;;;13.00;54.20;;;;;;4999501;28;20025;-86
2023/01/26 09:14:31;;;;;;;0.40;0.40;;;13.10;54.40;;;;;;4999814;28;20018;-85
2023/01/26 09:16:57;;;;;;;0.30;0.30;;;13.10;54.10;;;;;;4999667;28;20022;-85
2023/01/26 09:19:23;;;;;;;0.30;0.30;;;13.20;54.40;;;;;;4999603;28;20116;-86
2023/01/26 09:21:55;;;;;;;0.20;0.20;;;13.10;54.40;;;;;;4999441;28;20026;-85
2023/01/26 09:24:21;;;;;;;0.40;0.40;;;13.00;54.40;;;;;;4999219;28;20448;-86
2023/01/26 09:26:47;;;;;;;0.20;0.20;;;13.10;54.00;;;;;;4999233;28;20025;-85
2023/01/26 09:29:13;;;;;;;0.35;0.35;;;13.20;53.90;;;;;;4999914;28;20034;-87
2023/01/26 09:31:39;;;;;;;0.30;0.30;;;13.20;54.00;;;;;;4999237;28;20073;-86
2023/01/26 09:34:05;;;;;;;0.30;0.30;;;13.20;53.90;;;;;;4999673;28;20010;-86
2023/01/26 09:36:32;;;;;;;0.20;0.20;;;13.30;54.00;;;;;;4999227;28;20037;-86
2023/01/26 09:38:58;;;;;;;0.20;0.20;;;13.00;53.80;;;;;;4999168;28;20048;-86
2023/01/26 09:41:46;;;;;;;0.30;0.30;;;12.30;55.40;;;;;;4998672;28;20018;-86
2023/01/26 09:44:19;;;;;;;0.30;0.30;;;12.20;55.90;;;;;;4998885;28;20026;-86
2023/01/26 09:47:14;;;;;;;0.30;0.30;;;11.90;56.70;;;;;;4998456;28;20520;-86
2023/01/26 09:50:00;;;;;;;0.28;0.28;;;11.60;57.10;;;;;;4998995;28;20353;-86
2023/01/26 09:52:31;;;;;;;0.20;0.20;;;11.40;57.70;;;;;;4998826;28;20026;-85
2023/01/26 09:55:04;;;;;;;0.28;0.28;;;11.70;57.50;;;;;;4999959;28;20025;-87
2023/01/26 09:57:45;;;;;;;0.30;0.30;;;12.20;56.20;;;;;;4998381;28;20048;-86
2023/01/26 10:00:23;;;;;;;0.25;0.25;;;12.60;55.60;;;;;;4998663;28;20056;-85
2023/01/26 10:02:59;;;;;;;0.30;0.30;;;12.80;54.60;;;;;;4999120;28;20022;-85
2023/01/26 10:05:34;;;;;;;0.20;0.20;;;12.90;53.90;;;;;;4998576;28;20018;-86
2023/01/26 10:08:01;;;;;;;0.30;0.30;;;13.20;53.70;;;;;;4998711;28;20041;-86
2023/01/26 10:10:33;;;;;;;0.30;0.30;;;13.20;52.40;;;;;;4998245;28;20018;-86
2023/01/26 10:12:59;;;;;;;0.30;0.30;;;13.10;52.70;;;;;;4998406;28;20121;-86
2023/01/26 10:15:37;;;;;;;0.30;0.30;;;13.20;53.50;;;;;;4998533;28;20068;-85
2023/01/26 10:18:16;;;;;;;0.20;0.20;;;13.10;52.90;;;;;;4998530;28;20123;-85
2023/01/26 10:20:46;;;;;;;0.30;0.30;;;13.00;52.80;;;;;;4997162;28;20346;-85
2023/01/26 10:23:30;;;;;;;0.30;0.30;;;12.10;52.80;;;;;;4998167;28;20093;-83
2023/01/26 10:26:15;;;;;;;0.20;0.20;;;10.90;55.80;;;;;;5008385;28;20480;-83
2023/01/26 10:28:43;;;;;;;0.30;0.30;;;10.40;56.50;;;;;;5014450;28;20041;-84
2023/01/26 10:31:15;;;;;;;0.30;0.30;;;10.60;57.50;;;;;;5013973;28;20018;-84
2023/01/26 10:33:48;;;;;;;0.30;0.30;;;11.00;56.50;;;;;;5013650;28;20022;-85
2023/01/26 10:36:14;;;;;;;0.40;0.40;;;11.60;54.70;;;;;;5014731;28;20037;-85
2023/01/26 10:38:42;;;;;;;0.20;0.20;;;11.90;53.50;;;;;;5014133;28;20021;-85
2023/01/26 10:41:13;;;;;;;0.22;0.22;;;12.30;54.10;;;;;;5014477;28;20014;-85
2023/01/26 10:43:55;;;;;;;0.28;0.28;;;12.70;51.80;;;;;;5013846;28;20038;-84
2023/01/26 10:46:39;;;;;;;0.30;0.30;;;12.40;51.70;;;;;;5013974;28;20405;-87
2023/01/26 10:49:08;;;;;;;0.30;0.30;;;11.80;51.30;;;;;;5014270;28;20057;-86
2023/01/26 10:51:39;;;;;;;0.40;0.40;;;11.50;51.80;;;;;;5013893;28;20044;-87
2023/01/26 10:54:17;;;;;;;0.20;0.20;;;11.60;51.50;;;;;;5014482;28;20022;-86
2023/01/26 10:57:03;;;;;;;0.30;0.30;;;11.80;51.90;;;;;;5014162;28;20108;-87
2023/01/26 10:59:36;;;;;;;0.30;0.30;;;12.10;51.10;;;;;;5014005;28;20380;-87
2023/01/26 11:02:29;;;;;;;0.30;0.30;;;12.00;52.10;;;;;;5014050;28;20022;-87
2023/01/26 11:05:07;;;;;;;0.30;0.30;;;11.80;51.40;;;;;;5010897;28;20029;-87
2023/01/26 11:07:41;;;;;;;0.30;0.30;;;11.90;52.30;;;;;;5013415;28;20038;-86
2023/01/26 11:10:37;;;;;;;0.30;0.30;;;12.20;52.30;;;;;;4667483;28;9999593;-88
2023/01/26 11:13:07;;;;;;;0.20;0.20;;;12.80;51.80;;;;;;5011881;28;20346;-87
2023/01/26 11:15:38;;;;;;;0.30;0.30;;;13.20;51.20;;;;;;5030126;28;20026;-87
2023/01/26 11:18:35;;;;;;;0.20;0.20;;;13.30;50.50;;;;;;5030223;28;20169;-86
2023/01/26 11:21:30;;;;;;;0.22;0.22;;;13.10;49.40;;;;;;5030037;28;20022;-87
2023/01/26 11:24:03;;;;;;;0.30;0.30;;;12.90;51.20;;;;;;5012132;28;20032;-85
2023/01/26 11:26:35;;;;;;;0.30;0.30;;;13.00;50.90;;;;;;5014952;28;20136;-87
2023/01/26 11:29:07;;;;;;;0.30;0.30;;;13.30;49.90;;;;;;5013384;28;20026;-84
2023/01/26 11:31:50;;;;;;;0.30;0.30;;;12.00;49.80;;;;;;5013218;28;20024;-87
2023/01/26 11:34:19;;;;;;;0.30;0.30;;;11.10;51.60;;;;;;5013028;28;20018;-87
2023/01/26 11:36:50;;;;;;;0.40;0.40;;;10.70;53.40;;;;;;5013111;28;20156;-87
2023/01/26 11:39:59;;;;;;;0.30;0.30;;;10.80;53.00;;;;;;5013307;28;20025;-85
2023/01/26 11:42:43;;;;;;;0.30;0.30;;;11.10;52.10;;;;;;4918957;29;20035;-87
2023/01/26 11:45:26;;;;;;;0.20;0.20;;;11.10;52.90;;;;;;4934707;29;20035;-86
2023/01/26 11:48:17;;;;;;;0.30;0.30;;;11.60;51.90;;;;;;4918843;29;20031;-86
2023/01/26 11:50:49;;;;;;;0.28;0.28;;;11.00;52.10;;;;;;4934758;29;20525;-86
2023/01/26 11:53:36;;;;;;;0.30;0.30;;;10.80;53.50;;;;;;4935013;29;20426;-86
2023/01/26 11:56:35;;;;;;;0.30;0.30;;;10.40;52.70;;;;;;4934767;29;20111;-86
2023/01/26 11:59:09;;;;;;;0.30;0.30;;;10.50;53.20;;;;;;4934611;29;20027;-85
2023/01/26 12:01:40;;;;;;;0.40;0.40;;;10.30;53.70;;;;;;4934756;29;20537;-87
2023/01/26 12:04:17;;;;;;;0.22;0.22;;;10.60;53.70;;;;;;4918726;29;20075;-84
2023/01/26 12:06:45;;;;;;;0.20;0.20;;;10.50;53.10;;;;;;4934602;29;20118;-85
2023/01/26 12:09:20;;;;;;;0.20;0.20;;;10.70;53.80;;;;;;4918699;29;20466;-87
2023/01/26 12:11:56;;;;;;;0.30;0.30;;;10.80;52.40;;;;;;4918945;29;20031;-87
2023/01/26 12:14:25;;;;;;;0.40;0.40;;;10.50;53.50;;;;;;4934768;29;20031;-85
2023/01/26 12:16:56;;;;;;;0.30;0.30;;;10.80;53.20;;;;;;4980798;28;20032;-85
2023/01/26 12:19:36;;;;;;;0.38;0.38;;;11.40;52.20;;;;;;5012713;28;20026;-86
2023/01/26 12:22:30;;;;;;;0.20;0.20;;;11.90;52.20;;;;;;5012829;28;20022;-87
2023/01/26 12:25:20;;;;;;;0.32;0.32;;;12.10;50.20;;;;;;4995669;28;20052;-87
2023/01/26 12:27:56;;;;;;;0.30;0.30;;;11.70;50.80;;;;;;5012651;28;20018;-85
2023/01/26 12:30:41;;;;;;;0.30;0.30;;;11.90;51.20;;;;;;4996264;28;20051;-86
2023/01/26 12:33:09;;;;;;;0.20;0.20;;;11.00;50.20;;;;;;5012647;28;20013;-87
2023/01/26 12:36:17;;;;;;;0.25;0.25;;;10.10;52.70;;;;;;4995809;28;20014;-86
2023/01/26 12:39:18;;;;;;;0.30;0.30;;;10.00;53.70;;;;;;5012536;28;20103;-87
2023/01/26 12:42:21;;;;;;;0.25;0.25;;;10.60;52.70;;;;;;4934391;29;20059;-87
2023/01/26 12:44:54;;;;;;;0.40;0.40;;;11.40;51.30;;;;;;4920317;29;20158;-87
2023/01/26 12:47:25;;;;;;;0.22;0.22;;;11.30;51.60;;;;;;4921922;29;20024;-87
2023/01/26 12:49:57;;;;;;;0.30;0.30;;;11.60;51.40;;;;;;4922187;29;20040;-86
2023/01/26 12:52:22;;;;;;;0.20;0.20;;;11.60;50.90;;;;;;4921947;29;20024;-87
2023/01/26 12:54:55;;;;;;;0.30;0.30;;;11.00;50.90;;;;;;4921913;29;20038;-87
2023/01/26 12:57:29;;;;;;;0.20;0.20;;;11.30;51.60;;;;;;4922042;29;20024;-87
2023/01/26 13:00:07;;;;;;;0.30;0.30;;;11.90;50.40;;;;;;4921944;29;20091;-87
2023/01/26 13:02:34;;;;;;;0.30;0.30;;;11.30;50.60;;;;;;4921880;29;20058;-86
2023/01/26 13:05:04;;;;;;;0.28;0.28;;;11.00;50.90;;;;;;4922164;29;20079;-86
2023/01/26 13:07:39;;;;;;;0.30;0.30;;;10.90;51.70;;;;;;4921815;29;20032;-86
2023/01/26 13:10:13;;;;;;;0.30;0.30;;;11.50;51.60;;;;;;4921765;29;20321;-86
2023/01/26 13:12:54;;;;;;;0.30;0.30;;;12.20;50.40;;;;;;3905907;29;10000710;-87
2023/01/26 13:15:30;;;;;;;0.20;0.20;;;12.50;49.50;;;;;;4965548;28;20091;-86
2023/01/26 13:18:01;;;;;;;0.30;0.30;;;12.70;48.80;;;;;;5036144;28;20022;-86
2023/01/26 13:20:45;;;;;;;0.20;0.20;;;12.40;49.10;;;;;;5035393;28;20021;-86
2023/01/26 13:23:40;;;;;;;0.40;0.40;;;12.00;49.30;;;;;;5035366;28;20017;-87
2023/01/26 13:26:09;;;;;;;0.30;0.30;;;11.80;50.00;;;;;;5047151;28;20069;-86
2023/01/26 13:28:34;;;;;;;0.30;0.30;;;11.50;50.90;;;;;;5035399;28;20026;-86
2023/01/26 13:31:05;;;;;;;0.25;0.25;;;11.90;50.30;;;;;;5035273;28;20067;-87
2023/01/26 13:33:31;;;;;;;;;;;12.20;50.20;;;;;;5035748;28;20557;-86
2023/01/26 13:36:01;;;;;;;0.25;0.25;;;12.70;49.90;;;;;;5035280;28;19936;-86
2023/01/26 13:38:46;;;;;;;0.47;0.47;;;12.90;48.90;;;;;;5035233;28;20028;-87
2023/01/26 13:41:19;;;;;;;0.30;0.30;;;13.20;48.70;;;;;;5035418;28;20078;-87
2023/01/26 13:43:50;;;;;;;0.30;0.30;;;12.60;48.10;;;;;;5035700;28;20013;-87
2023/01/26 13:46:39;;;;;;;0.30;0.30;;;12.30;48.80;;;;;;5035052;28;20040;-87
2023/01/26 13:49:21;;;;;;;0.22;0.22;;;12.50;48.80;;;;;;5035167;28;20124;-86
2023/01/26 13:51:47;;;;;;;0.20;0.20;;;12.60;48.80;;;;;;5035093;28;20049;-87
2023/01/26 13:54:14;;;;;;;0.20;0.20;;;13.00;48.70;;;;;;5034906;28;20057;-86
2023/01/26 13:56:41;;;;;;;0.30;0.30;;;13.20;48.90;;;;;;5034703;28;20017;-87
2023/01/26 13:59:11;;;;;;;0.28;0.28;;;13.30;48.20;;;;;;5034884;28;20483;-86